Huntsville, IL (62344)

3:06 PM CDT on April 25, 2017 (GMT -0500)
Camden | | Change Station
Active Advisory: Flood Warning

Elev 592 ft 40.15 °N, 90.77 °W | Updated 10 seconds ago

Partly Cloudy
Partly Cloudy
78.4 °F
Feels Like 78 °F
N
15.9
Wind Variable Wind from SSE
Gusts 22.4 mph

Today
High -- | Low -- °F
--% Chance of Precip.
Yesterday
High -- | Low -- °F
Precip. -- in
Pressure 29.44 in
Visibility 10.0 miles
Clouds Clear
Heat Index 78 °F
Dew Point 44 °F
Humidity 30%
Rainfall 0.00 in
Snow Depth Not available.
6:10 AM 7:52 PM
Waning Crescent, 1% visible
METAR KUIN 251954Z AUTO 16021G28KT 10SM CLR 25/08 A2945 RMK AO2 PK WND 16031/1924 SLP967 T02500078
Pressure 29.44 in
Visibility 10.0 miles
Clouds Clear
Heat Index 78 °F
Dew Point 44 °F
Humidity 30%
Rainfall 0.00 in
Snow Depth Not available.
6:10 AM 7:52 PM
Waning Crescent, 1% visible
METAR KUIN 251954Z AUTO 16021G28KT 10SM CLR 25/08 A2945 RMK AO2 PK WND 16031/1924 SLP967 T02500078

Get Your Daily Forecast Email!

Thanks for signing up!

Be on the lookout for a verification email in your inbox.

You'll start receiving severe weather alerts in your inbox..

×

10-Day Weather Forecast

Almanac

Astronomy

Apr. 25, 2017 Rise Set
Actual Time
Civil Twilight
Nautical Twilight
Astronomical Twilight
Moon
Length of Visible Light
Length of Day
Tomorrow will be .
, % of the Moon is Illuminated

Today's Extremes

State Highs State Lows

Community

WunderPhotos

WunderBlog® & News

Nearby

Air Quality

  Air Quality AQ Index Pollutant
Not available.

Snow Depth

Station Depth Elevation

Earthquake Activity

City Distance Mag. Time & Date
Minimum magnitude displayed is 2.5.

Coastal Water Temperatures

Place Temperature

Stations

Nearby Weather Stations

Station Location Temp. Windchill Dew Point Humidity Wind Precip. Elev Updated Type
                   

Watches & Warnings

Flood Warning
Issued: 10:09 AM CDT Apr. 25, 2017 – National Weather Service

The Flood Warning continues for
the Illinois River at Beardstown.
* Until further notice.
* At 945 am Tuesday the stage was 16.8 feet.
* Flood stage is 14.0 feet.
* Minor flooding is occurring and minor flooding is forecast.
* Forecast... the river will continue to slowly fall.



                  Fld observed forecast 6am
location stg stg day time Wed Thu Fri

Illinois River
Beardstown 14 16.8 Tue 10 am 16.5 16.1 15.7



Lat... Lon 4018 9023 4012 9017 4008 9037 3999 9046
      3999 9058 4015 9043


25